TimeEST,TemperatureF,Dew PointF,Humidity,Sea Level PressureIn,VisibilityMPH,Wind Direction,Wind SpeedMPH,Gust SpeedMPH,PrecipitationIn,Events,Conditions,WindDirDegrees,DateUTC
12:13 AM,33.3,32.0,95,30.33,5.0,Calm,Calm,-,N/A,,Clear,0,2012-11-16 05:13:00
12:33 AM,32.9,31.5,94,30.33,5.0,Calm,Calm,-,N/A,,Clear,0,2012-11-16 05:33:00
12:53 AM,28.4,27.9,98,30.33,3.0,Calm,Calm,-,N/A,,Clear,0,2012-11-16 05:53:00
1:13 AM,28.4,28.4,100,30.33,3.0,Calm,Calm,-,N/A,,Clear,0,2012-11-16 06:13:00
1:33 AM,25.7,25.3,99,30.33,3.0,Calm,Calm,-,N/A,,Clear,0,2012-11-16 06:33:00
1:54 AM,26.1,26.1,100,30.33,3.0,Calm,Calm,-,N/A,,Mist,0,2012-11-16 06:54:00
2:14 AM,25.2,25.2,100,30.33,2.0,Calm,Calm,-,N/A,,Clear,0,2012-11-16 07:14:00
2:34 AM,24.8,24.8,100,30.33,4.0,Calm,Calm,-,N/A,,Clear,0,2012-11-16 07:34:00
2:54 AM,26.1,25.7,99,30.33,5.0,Calm,Calm,-,N/A,,Clear,0,2012-11-16 07:54:00
3:14 AM,23.5,23.0,98,30.34,2.5,Calm,Calm,-,N/A,,Clear,0,2012-11-16 08:14:00
3:34 AM,22.1,21.7,99,30.35,2.0,Calm,Calm,-,N/A,,Mostly Cloudy,0,2012-11-16 08:34:00
3:54 AM,26.4,26.1,99,30.35,5.0,Calm,Calm,-,N/A,,Mostly Cloudy,0,2012-11-16 08:54:00
4:15 AM,26.1,25.7,99,30.36,4.0,Calm,Calm,-,N/A,,Overcast,0,2012-11-16 09:15:00
4:35 AM,28.4,28.4,100,30.36,4.0,Calm,Calm,-,N/A,,Overcast,0,2012-11-16 09:35:00
4:55 AM,28.6,28.4,99,30.37,3.0,Calm,Calm,-,N/A,,Overcast,0,2012-11-16 09:55:00
5:15 AM,29.7,29.7,100,30.38,3.0,Calm,Calm,-,N/A,,Overcast,0,2012-11-16 10:15:00
5:35 AM,31.1,30.9,99,30.38,3.0,Calm,Calm,-,N/A,,Overcast,0,2012-11-16 10:35:00
5:55 AM,31.1,30.6,98,30.38,3.0,Calm,Calm,-,N/A,,Overcast,0,2012-11-16 10:55:00
6:15 AM,30.2,30.2,100,30.39,3.0,Calm,Calm,-,N/A,,Mostly Cloudy,0,2012-11-16 11:15:00
6:35 AM,28.6,28.6,100,30.38,2.5,Calm,Calm,-,N/A,,Scattered Clouds,0,2012-11-16 11:35:00
6:56 AM,28.4,28.4,100,30.39,1.8,Calm,Calm,-,N/A,,Mist,0,2012-11-16 11:56:00
7:11 AM,26.1,26.1,100,30.40,3.0,Calm,Calm,-,N/A,,Clear,0,2012-11-16 12:11:00
7:31 AM,26.1,26.1,100,30.40,5.0,Calm,Calm,-,N/A,,Clear,0,2012-11-16 12:31:00
7:51 AM,26.1,25.5,98,30.42,1.5,Calm,Calm,-,N/A,,Overcast,0,2012-11-16 12:51:00
8:11 AM,28.4,28.4,100,30.42,0.2,Calm,Calm,-,N/A,Fog,Light Freezing Fog,0,2012-11-16 13:11:00
8:31 AM,29.7,29.7,100,30.42,0.2,Calm,Calm,-,N/A,Fog,Light Freezing Fog,0,2012-11-16 13:31:00
8:51 AM,31.1,31.1,100,30.43,0.2,Calm,Calm,-,N/A,Fog,Light Freezing Fog,0,2012-11-16 13:51:00
9:11 AM,32.5,32.5,100,30.44,0.2,Calm,Calm,-,N/A,Fog,Fog,0,2012-11-16 14:11:00
9:32 AM,31.3,31.3,100,30.44,0.2,Calm,Calm,-,N/A,Fog,Light Freezing Fog,0,2012-11-16 14:32:00
9:52 AM,33.4,33.4,100,30.44,2.0,Calm,Calm,-,N/A,,Mostly Cloudy,0,2012-11-16 14:52:00
10:12 AM,35.8,35.8,100,30.45,7.0,Calm,Calm,-,N/A,,Clear,0,2012-11-16 15:12:00
10:32 AM,35.8,35.4,99,30.45,10.0,Calm,Calm,-,N/A,,Clear,0,2012-11-16 15:32:00
10:52 AM,36.7,35.1,94,30.46,10.0,Calm,Calm,-,N/A,,Clear,0,2012-11-16 15:52:00
11:12 AM,38.8,35.8,89,30.45,10.0,Calm,Calm,-,N/A,,Clear,0,2012-11-16 16:12:00
11:32 AM,38.8,35.2,87,30.46,10.0,Calm,Calm,-,N/A,,Clear,0,2012-11-16 16:32:00
11:53 AM,41.2,30.4,65,30.45,10.0,WNW,4.6,-,N/A,,Clear,300,2012-11-16 16:53:00
12:13 PM,41.9,26.8,55,30.45,10.0,Calm,Calm,-,N/A,,Clear,0,2012-11-16 17:13:00
12:33 PM,43.5,27.1,53,30.44,10.0,Calm,Calm,-,N/A,,Clear,0,2012-11-16 17:33:00
12:53 PM,44.4,27.3,51,30.44,10.0,NNW,4.6,-,N/A,,Clear,340,2012-11-16 17:53:00
1:13 PM,45.5,27.7,50,30.44,10.0,NW,3.5,-,N/A,,Clear,310,2012-11-16 18:13:00
1:33 PM,46.6,25.9,44,30.45,10.0,Calm,Calm,-,N/A,,Clear,0,2012-11-16 18:33:00
1:53 PM,48.4,27.1,44,30.45,10.0,NW,4.6,-,N/A,,Clear,310,2012-11-16 18:53:00
2:13 PM,47.8,25.7,42,30.45,10.0,NNW,6.9,-,N/A,,Clear,340,2012-11-16 19:13:00
2:34 PM,48.4,23.9,38,30.45,10.0,West,6.9,-,N/A,,Clear,280,2012-11-16 19:34:00
2:54 PM,48.4,22.5,36,30.45,10.0,WNW,4.6,-,N/A,,Clear,300,2012-11-16 19:54:00
3:14 PM,48.4,22.6,36,30.44,10.0,NNW,5.8,-,N/A,,Clear,340,2012-11-16 20:14:00
3:34 PM,48.4,22.1,36,30.45,10.0,Calm,Calm,-,N/A,,Clear,0,2012-11-16 20:34:00
3:54 PM,45.9,20.8,37,30.45,10.0,North,3.5,-,N/A,,Clear,10,2012-11-16 20:54:00
4:14 PM,46.9,22.1,38,30.46,10.0,Calm,Calm,-,N/A,,Clear,0,2012-11-16 21:14:00
4:34 PM,45.7,21.9,39,30.46,10.0,Calm,Calm,-,N/A,,Clear,0,2012-11-16 21:34:00
4:55 PM,41.2,20.3,43,30.46,10.0,Calm,Calm,-,N/A,,Clear,0,2012-11-16 21:55:00
5:15 PM,36.5,23.2,59,30.46,10.0,Calm,Calm,-,N/A,,Clear,0,2012-11-16 22:15:00
5:35 PM,33.4,22.8,65,30.46,10.0,Calm,Calm,-,N/A,,Clear,0,2012-11-16 22:35:00
5:55 PM,33.3,23.5,68,30.47,10.0,Calm,Calm,-,N/A,,Clear,0,2012-11-16 22:55:00
6:15 PM,31.1,22.1,69,30.47,10.0,Calm,Calm,-,N/A,,Clear,0,2012-11-16 23:15:00
6:35 PM,28.4,23.7,83,30.47,10.0,Calm,Calm,-,N/A,,Clear,0,2012-11-16 23:35:00
6:55 PM,28.4,22.8,80,30.48,10.0,Calm,Calm,-,N/A,,Clear,0,2012-11-16 23:55:00
7:15 PM,28.2,22.1,78,30.47,10.0,Calm,Calm,-,N/A,,Clear,0,2012-11-17 00:15:00
7:36 PM,26.1,23.2,89,30.47,7.0,Calm,Calm,-,N/A,,Clear,0,2012-11-17 00:36:00
7:56 PM,26.6,20.7,78,30.47,10.0,Calm,Calm,-,N/A,,Clear,0,2012-11-17 00:56:00
8:11 PM,26.1,20.8,81,30.47,10.0,Calm,Calm,-,N/A,,Clear,0,2012-11-17 01:11:00
8:31 PM,25.9,21.9,85,30.47,10.0,Calm,Calm,-,N/A,,Clear,0,2012-11-17 01:31:00
8:51 PM,23.5,20.1,87,30.47,10.0,Calm,Calm,-,N/A,,Clear,0,2012-11-17 01:51:00
9:11 PM,23.9,20.1,85,30.48,10.0,Calm,Calm,-,N/A,,Clear,0,2012-11-17 02:11:00
9:31 PM,23.5,20.7,89,30.47,10.0,Calm,Calm,-,N/A,,Clear,0,2012-11-17 02:31:00
9:51 PM,23.9,20.3,86,30.47,10.0,Calm,Calm,-,N/A,,Clear,0,2012-11-17 02:51:00
10:11 PM,23.5,19.8,85,30.47,10.0,Calm,Calm,-,N/A,,Clear,0,2012-11-17 03:11:00
10:32 PM,23.9,20.3,86,30.48,10.0,Calm,Calm,-,N/A,,Clear,0,2012-11-17 03:32:00
10:52 PM,24.4,21.4,88,30.48,10.0,Calm,Calm,-,N/A,,Clear,0,2012-11-17 03:52:00
11:12 PM,26.2,21.9,84,30.47,10.0,Calm,Calm,-,N/A,,Mostly Cloudy,0,2012-11-17 04:12:00
11:32 PM,27.9,24.6,88,30.47,10.0,Calm,Calm,-,N/A,,Scattered Clouds,0,2012-11-17 04:32:00
11:52 PM,26.1,23.0,88,30.47,10.0,Calm,Calm,-,N/A,,Scattered Clouds,0,2012-11-17 04:52:00